Time;durP1;ratioP1;P1;durP2;ratioP2;P2;SDS_P1;SDS_P2;PMS_P1;PMS_P2;Temp;Humidity;BMP_temperature;BMP_pressure;BME280_temperature;BME280_humidity;BME280_pressure;Samples;Min_cycle;Max_cycle;Signal;HPM_P1;HPM_P2
2022/06/25 00:00:00;;;;;;;1.20;1.10;;;;;;;13.51;100.00;95690.78;5089725;28;20429;-69
2022/06/25 00:02:25;;;;;;;1.55;1.27;;;;;;;13.51;100.00;95698.72;5088470;28;20039;-68
2022/06/25 00:07:34;;;;;;;4.68;1.40;;;;;;;13.49;100.00;95686.63;5085160;28;20069;-68
2022/06/25 00:10:00;;;;;;;1.85;1.10;;;;;;;13.46;100.00;95688.63;5091386;28;20028;-68
2022/06/25 00:12:34;;;;;;;3.70;1.20;;;;;;;13.50;100.00;95686.50;5098273;28;20050;-68
2022/06/25 00:15:04;;;;;;;1.20;1.20;;;;;;;13.56;100.00;95677.91;5095895;28;20452;-68
2022/06/25 00:17:30;;;;;;;4.28;1.40;;;;;;;13.63;100.00;95686.03;5084859;28;20086;-68
2022/06/25 00:19:55;;;;;;;2.80;1.30;;;;;;;13.69;100.00;95682.72;5086347;28;20031;-68
2022/06/25 00:22:21;;;;;;;4.03;1.27;;;;;;;13.69;100.00;95677.44;5089905;28;20030;-68
2022/06/25 00:24:46;;;;;;;1.05;1.05;;;;;;;13.67;100.00;95679.41;5090991;28;20472;-67
2022/06/25 00:27:12;;;;;;;5.47;0.98;;;;;;;13.67;100.00;95684.72;5083095;28;20459;-68
2022/06/25 00:29:37;;;;;;;2.20;1.20;;;;;;;13.66;100.00;95682.22;5079251;28;20111;-68
2022/06/25 00:32:04;;;;;;;1.15;1.15;;;;;;;13.63;100.00;95680.75;5083817;28;20077;-68
2022/06/25 00:34:30;;;;;;;1.52;1.13;;;;;;;13.63;100.00;95679.91;5088888;28;20033;-68
2022/06/25 00:36:55;;;;;;;1.70;1.33;;;;;;;13.66;100.00;95683.06;5077169;28;20479;-68
2022/06/25 00:39:21;;;;;;;1.55;1.20;;;;;;;13.69;100.00;95682.72;5077854;28;20472;-68
2022/06/25 00:41:46;;;;;;;1.35;1.25;;;;;;;13.73;100.00;95678.75;5086063;28;20059;-68
2022/06/25 00:44:11;;;;;;;1.65;1.10;;;;;;;13.78;100.00;95683.56;5084515;28;20169;-68
2022/06/25 00:46:37;;;;;;;2.85;1.15;;;;;;;13.80;100.00;95684.25;5086420;28;20467;-68
2022/06/25 00:49:04;;;;;;;1.88;1.13;;;;;;;13.79;100.00;95681.75;5098801;28;20072;-68
2022/06/25 00:51:33;;;;;;;1.42;1.33;;;;;;;13.80;100.00;95683.41;5082380;28;20123;-68
2022/06/25 00:54:09;;;;;;;3.83;1.25;;;;;;;13.82;100.00;95687.56;5098126;28;20073;-68
2022/06/25 00:56:43;;;;;;;2.17;1.25;;;;;;;13.81;100.00;95685.06;5085841;28;20063;-68
2022/06/25 00:59:10;;;;;;;1.35;1.15;;;;;;;13.73;100.00;95676.13;5083976;28;20513;-68
2022/06/25 01:01:35;;;;;;;2.05;1.33;;;;;;;13.68;100.00;95674.94;5084658;28;20139;-68
2022/06/25 01:04:02;;;;;;;1.45;1.08;;;;;;;13.63;100.00;95671.97;5083306;28;20107;-68
2022/06/25 01:06:28;;;;;;;1.33;1.23;;;;;;;13.57;100.00;95674.25;5086404;28;20020;-68
2022/06/25 01:08:55;;;;;;;3.15;1.23;;;;;;;13.50;100.00;95675.91;5081427;28;20035;-68
2022/06/25 01:11:21;;;;;;;3.40;1.33;;;;;;;13.43;100.00;95675.72;5082396;28;20056;-68
2022/06/25 01:13:46;;;;;;;2.15;1.40;;;;;;;13.37;100.00;95676.31;5082432;28;20157;-68
2022/06/25 01:16:11;;;;;;;1.23;1.20;;;;;;;13.35;100.00;95675.63;5078946;28;20032;-68
2022/06/25 01:18:37;;;;;;;1.20;1.20;;;;;;;13.33;100.00;95661.75;5081359;28;20047;-68
2022/06/25 01:21:02;;;;;;;3.17;1.30;;;;;;;13.31;100.00;95661.09;5079113;28;20485;-68
2022/06/25 01:23:29;;;;;;;1.42;1.40;;;;;;;13.30;100.00;95662.91;5077128;28;20085;-69
2022/06/25 01:25:55;;;;;;;3.53;1.70;;;;;;;13.30;100.00;95656.78;5080862;28;20086;-68
2022/06/25 01:28:20;;;;;;;2.22;2.03;;;;;;;13.26;100.00;95658.09;5066395;28;20137;-68
2022/06/25 01:30:46;;;;;;;5.55;2.35;;;;;;;13.22;100.00;95656.75;5089592;28;20028;-68
2022/06/25 01:33:11;;;;;;;2.13;2.03;;;;;;;13.17;100.00;95658.06;5082590;28;20505;-68
2022/06/25 01:35:37;;;;;;;1.73;1.63;;;;;;;13.12;100.00;95659.53;5078852;28;20105;-68
2022/06/25 01:38:02;;;;;;;1.70;1.60;;;;;;;13.11;100.00;95663.16;5086439;28;20028;-69
2022/06/25 01:40:28;;;;;;;1.48;1.38;;;;;;;13.09;100.00;95657.22;5081958;28;20024;-69
2022/06/25 01:43:00;;;;;;;1.65;1.33;;;;;;;13.07;100.00;95651.25;5078455;28;20028;-69
2022/06/25 01:45:28;;;;;;;2.83;1.35;;;;;;;13.03;100.00;95651.53;5088897;28;20084;-68
2022/06/25 01:47:54;;;;;;;4.10;1.50;;;;;;;13.12;100.00;95654.25;5077387;28;20051;-69
2022/06/25 01:50:20;;;;;;;5.03;1.50;;;;;;;13.12;100.00;95655.06;5084319;28;20487;-69
2022/06/25 01:52:46;;;;;;;1.50;1.40;;;;;;;13.05;100.00;95661.97;5082949;28;20038;-69
2022/06/25 01:55:12;;;;;;;3.45;1.38;;;;;;;13.01;100.00;95652.72;5083457;28;20511;-69
2022/06/25 01:57:38;;;;;;;1.42;1.33;;;;;;;12.99;100.00;95657.31;5076699;28;20032;-68
2022/06/25 02:00:06;;;;;;;1.70;1.60;;;;;;;12.97;100.00;95657.47;5086984;28;20024;-69
2022/06/25 02:02:32;;;;;;;4.90;1.77;;;;;;;12.99;100.00;95657.31;5083342;28;20115;-68
2022/06/25 02:04:57;;;;;;;3.28;1.55;;;;;;;12.97;100.00;95657.47;5080491;28;20106;-68
2022/06/25 02:07:23;;;;;;;1.30;1.30;;;;;;;12.91;100.00;95652.81;5083989;28;20025;-69
2022/06/25 02:09:48;;;;;;;1.38;1.17;;;;;;;12.87;100.00;95652.31;5084039;28;20032;-68
2022/06/25 02:12:13;;;;;;;1.23;1.17;;;;;;;12.84;100.00;95652.63;5086887;28;20036;-68
2022/06/25 02:14:39;;;;;;;1.83;1.40;;;;;;;12.82;100.00;95653.75;5079661;28;20026;-68
2022/06/25 02:17:04;;;;;;;2.08;1.20;;;;;;;12.74;100.00;95647.44;5075002;28;20039;-68
2022/06/25 02:19:30;;;;;;;3.95;1.30;;;;;;;12.68;100.00;95655.16;5081657;28;20519;-68
2022/06/25 02:21:55;;;;;;;3.15;1.50;;;;;;;12.65;100.00;95651.03;5083804;28;20027;-69
2022/06/25 02:24:21;;;;;;;3.75;1.60;;;;;;;12.59;100.00;95644.56;5080186;28;20068;-68
2022/06/25 02:26:46;;;;;;;5.53;1.45;;;;;;;12.57;100.00;95638.59;5082370;28;20372;-68
2022/06/25 02:29:11;;;;;;;1.10;1.10;;;;;;;12.59;100.00;95641.06;5084210;28;20544;-69
2022/06/25 02:31:37;;;;;;;1.48;1.38;;;;;;;12.59;100.00;95644.56;5087257;28;20024;-68
2022/06/25 02:34:02;;;;;;;3.60;1.30;;;;;;;12.58;100.00;95637.63;5081967;28;20071;-68
2022/06/25 02:36:28;;;;;;;4.78;1.48;;;;;;;12.59;100.00;95638.44;5087390;28;20024;-68
2022/06/25 02:38:53;;;;;;;2.05;1.50;;;;;;;12.58;100.00;95627.06;5079425;28;20056;-69
2022/06/25 02:41:18;;;;;;;4.88;1.80;;;;;;;12.59;100.00;95634.00;5081513;28;20073;-68
2022/06/25 02:43:44;;;;;;;1.80;1.70;;;;;;;12.57;100.00;95635.97;5085711;28;20016;-68
2022/06/25 02:46:09;;;;;;;4.13;1.35;;;;;;;12.58;100.00;95634.13;5087249;28;20028;-69
2022/06/25 02:48:35;;;;;;;2.00;1.88;;;;;;;12.59;100.00;95627.88;5072028;28;20016;-68
2022/06/25 02:51:00;;;;;;;3.35;1.50;;;;;;;12.58;100.00;95631.50;5090155;28;20121;-69
2022/06/25 02:53:26;;;;;;;2.83;1.63;;;;;;;12.53;100.00;95639.91;5090104;28;20019;-67
2022/06/25 03:01:19;;;;;;;1.50;1.40;;;;;;;12.41;100.00;95638.50;5090004;28;20047;-68
2022/06/25 03:03:45;;;;;;;2.05;1.42;;;;;;;12.37;100.00;95635.31;5089524;28;20016;-69
2022/06/25 03:06:10;;;;;;;2.72;1.38;;;;;;;12.38;100.00;95626.44;5089585;28;20027;-69
2022/06/25 03:08:36;;;;;;;1.63;1.60;;;;;;;12.35;100.00;95637.28;5089779;28;20024;-69
2022/06/25 03:11:01;;;;;;;1.40;1.40;;;;;;;12.33;100.00;95633.97;5089937;28;20626;-69
2022/06/25 03:13:29;;;;;;;1.52;1.45;;;;;;;12.34;100.00;95637.47;5089916;28;20479;-68
2022/06/25 03:15:54;;;;;;;2.70;1.45;;;;;;;12.31;100.00;95639.44;5090246;28;20023;-69
2022/06/25 03:18:19;;;;;;;1.40;1.35;;;;;;;12.28;100.00;95634.47;5089525;28;20028;-69
2022/06/25 03:20:45;;;;;;;1.80;1.70;;;;;;;12.27;100.00;95634.59;5089821;28;20370;-67
2022/06/25 03:23:10;;;;;;;1.50;1.50;;;;;;;12.30;100.00;95634.28;5089997;28;20036;-69
2022/06/25 03:25:36;;;;;;;3.53;1.40;;;;;;;12.29;100.00;95641.41;5088523;28;20016;-69
2022/06/25 03:28:01;;;;;;;5.45;1.50;;;;;;;12.31;100.00;95639.44;5071510;28;20084;-69
2022/06/25 03:30:26;;;;;;;1.90;1.48;;;;;;;12.27;100.00;95647.81;5087809;28;20129;-68
2022/06/25 03:32:52;;;;;;;1.77;1.63;;;;;;;12.22;100.00;95632.41;5084029;28;20024;-68
2022/06/25 03:35:17;;;;;;;2.67;1.30;;;;;;;12.17;100.00;95630.25;5089177;28;20036;-69
2022/06/25 03:37:42;;;;;;;1.48;1.48;;;;;;;12.11;100.00;95632.69;5085142;28;20047;-69
2022/06/25 03:40:09;;;;;;;2.03;1.60;;;;;;;12.11;100.00;95627.41;5089594;28;20031;-69
2022/06/25 03:42:34;;;;;;;7.15;2.78;;;;;;;12.12;100.00;95629.06;5089481;28;20016;-69
2022/06/25 03:44:59;;;;;;;3.70;2.40;;;;;;;12.12;100.00;95631.69;5090145;28;20027;-69
2022/06/25 03:47:25;;;;;;;1.70;1.70;;;;;;;12.08;100.00;95631.16;5093255;28;20022;-69
2022/06/25 03:49:50;;;;;;;2.90;1.42;;;;;;;12.09;100.00;95626.72;5089457;28;20055;-69
2022/06/25 03:52:15;;;;;;;6.40;1.80;;;;;;;12.11;100.00;95622.13;5082716;28;20027;-69
2022/06/25 03:54:41;;;;;;;1.73;1.60;;;;;;;12.12;100.00;95618.50;5086683;28;20047;-69
2022/06/25 03:57:06;;;;;;;1.55;1.48;;;;;;;12.14;100.00;95616.53;5085641;28;20567;-69
2022/06/25 03:59:32;;;;;;;3.53;1.27;;;;;;;12.14;100.00;95616.53;5071629;28;20024;-69
2022/06/25 04:01:57;;;;;;;2.78;1.80;;;;;;;12.17;100.00;95613.59;5084105;28;20583;-68
2022/06/25 04:04:23;;;;;;;1.83;1.75;;;;;;;12.20;100.00;95617.75;5080816;28;20032;-69
2022/06/25 04:06:48;;;;;;;4.05;1.67;;;;;;;12.17;100.00;95622.34;5089288;28;20486;-69
2022/06/25 04:09:14;;;;;;;1.42;1.30;;;;;;;12.15;100.00;95615.56;5089299;28;20020;-69
2022/06/25 04:11:39;;;;;;;1.85;1.58;;;;;;;12.12;100.00;95621.13;5089239;28;20436;-69
2022/06/25 04:14:05;;;;;;;1.63;1.50;;;;;;;12.10;100.00;95620.47;5088876;28;20024;-69
2022/06/25 04:16:32;;;;;;;1.98;1.88;;;;;;;12.12;100.00;95619.31;5090608;28;20123;-68
2022/06/25 04:18:57;;;;;;;1.77;1.40;;;;;;;12.12;100.00;95623.78;5093118;28;20111;-69
2022/06/25 04:21:23;;;;;;;1.98;1.40;;;;;;;12.11;100.00;95620.28;5092732;28;20028;-69
2022/06/25 04:23:48;;;;;;;1.63;1.52;;;;;;;12.13;100.00;95625.44;5092682;28;20566;-69
2022/06/25 04:26:14;;;;;;;5.70;1.50;;;;;;;12.19;100.00;95624.81;5092849;28;20017;-68
2022/06/25 04:31:24;;;;;;;4.05;1.80;;;;;;;12.18;100.00;95615.25;5082819;28;20043;-69
2022/06/25 04:33:49;;;;;;;2.50;1.80;;;;;;;12.17;100.00;95624.97;5092455;28;20408;-69
2022/06/25 04:36:14;;;;;;;7.18;1.48;;;;;;;12.12;100.00;95621.94;5090186;28;20036;-68
2022/06/25 04:38:40;;;;;;;3.30;1.55;;;;;;;12.08;100.00;95617.16;5090248;28;20485;-69
2022/06/25 04:41:05;;;;;;;1.50;1.40;;;;;;;12.06;100.00;95617.28;5087526;28;20028;-69
2022/06/25 04:43:31;;;;;;;1.60;1.50;;;;;;;11.98;100.00;95604.84;5080881;28;20406;-69
2022/06/25 04:45:56;;;;;;;3.42;1.60;;;;;;;12.01;100.00;95609.03;5092503;28;20757;-68
2022/06/25 04:48:21;;;;;;;2.88;1.30;;;;;;;12.03;100.00;95599.94;5090328;28;20039;-69
2022/06/25 04:50:47;;;;;;;2.15;1.80;;;;;;;12.04;100.00;95598.97;5092435;28;20047;-69
2022/06/25 04:53:13;;;;;;;2.95;1.55;;;;;;;12.07;100.00;95602.31;5092315;28;20055;-69
2022/06/25 04:55:39;;;;;;;8.52;4.82;;;;;;;12.12;100.00;95602.66;5092040;28;20048;-69
2022/06/25 04:58:04;;;;;;;2.10;2.00;;;;;;;12.16;100.00;95601.38;5092444;28;20514;-69
2022/06/25 05:00:30;;;;;;;3.22;2.13;;;;;;;12.19;100.00;95606.34;5092001;28;20503;-68
2022/06/25 05:02:55;;;;;;;2.40;1.70;;;;;;;12.16;100.00;95604.84;5085531;28;20056;-69
2022/06/25 05:05:21;;;;;;;2.25;1.80;;;;;;;12.22;100.00;95600.75;5085243;28;20032;-69
2022/06/25 05:07:46;;;;;;;2.10;2.00;;;;;;;12.36;100.00;95604.63;5091881;28;20035;-70
2022/06/25 05:10:12;;;;;;;3.65;2.65;;;;;;;12.55;100.00;95606.25;5101131;28;20036;-69
2022/06/25 05:15:21;;;;;;;9.15;7.28;;;;;;;12.85;100.00;95604.06;5093269;28;20047;-70
2022/06/25 05:17:47;;;;;;;9.07;7.13;;;;;;;12.98;100.00;95600.19;5091618;28;20032;-69
2022/06/25 05:20:13;;;;;;;9.15;8.38;;;;;;;13.07;100.00;95604.50;5091616;28;20078;-70
2022/06/25 05:22:38;;;;;;;10.70;9.75;;;;;;;13.16;100.00;95603.56;5092138;28;20425;-69
2022/06/25 05:25:04;;;;;;;8.70;8.10;;;;;;;13.30;100.00;95603.91;5091696;28;20020;-69
2022/06/25 05:27:29;;;;;;;9.68;8.85;;;;;;;13.39;100.00;95597.66;5090402;28;20462;-70
2022/06/25 05:29:55;;;;;;;10.18;9.20;;;;;;;13.46;100.00;95597.84;5091702;28;20024;-69
2022/06/25 05:32:21;;;;;;;8.25;7.75;;;;;;;13.56;100.00;95598.56;5091516;28;20020;-70
2022/06/25 05:34:48;;;;;;;9.45;8.75;;;;;;;13.68;100.00;95600.88;5091544;28;20065;-70
2022/06/25 05:37:13;;;;;;;12.15;10.13;;;;;;;13.76;100.00;95600.91;5091512;28;20077;-70
2022/06/25 05:39:38;;;;;;;8.88;7.35;;;;;;;13.78;100.00;95600.72;5091644;28;20439;-70
2022/06/25 05:42:05;;;;;;;6.15;4.75;;;;;;;13.83;100.00;95593.13;5091620;28;20027;-70
2022/06/25 05:44:30;;;;;;;6.40;4.22;;;;;;;13.94;100.00;95587.50;5091239;28;20035;-70
2022/06/25 05:46:56;;;;;;;2.28;2.17;;;;;;;14.04;100.00;95596.13;5091467;28;20020;-70
2022/06/25 05:49:21;;;;;;;3.03;2.83;;;;;;;14.18;100.00;95591.13;5091062;28;20635;-70
2022/06/25 05:51:46;;;;;;;6.55;5.95;;;;;;;14.31;100.00;95594.09;5091476;28;20020;-70
2022/06/25 05:54:12;;;;;;;3.08;2.97;;;;;;;14.44;100.00;95587.44;5091729;28;20020;-70
2022/06/25 05:56:37;;;;;;;2.00;1.90;;;;;;;14.53;100.00;95585.59;5090944;28;20040;-70
2022/06/25 05:59:03;;;;;;;2.15;1.40;;;;;;;14.64;100.00;95587.06;5091138;28;20756;-70
2022/06/25 06:01:28;;;;;;;1.00;1.00;;;;;;;14.74;97.01;95588.56;5090953;28;20030;-70
2022/06/25 06:03:54;;;;;;;1.35;1.25;;;;;;;14.88;97.28;95586.22;5091095;28;20057;-71
2022/06/25 06:06:19;;;;;;;1.08;1.08;;;;;;;15.00;96.45;95581.34;5090967;28;20419;-71
2022/06/25 06:08:44;;;;;;;0.90;0.90;;;;;;;15.14;92.40;95588.59;5091031;28;20016;-71
2022/06/25 06:11:10;;;;;;;0.90;0.90;;;;;;;15.20;93.48;95594.19;5091260;28;20123;-70
2022/06/25 06:13:35;;;;;;;1.33;1.30;;;;;;;15.45;91.39;95590.41;5090738;28;20057;-71
2022/06/25 06:16:01;;;;;;;1.10;1.10;;;;;;;15.45;91.40;95582.44;5090824;28;20031;-71
2022/06/25 06:18:26;;;;;;;2.80;1.05;;;;;;;15.51;92.12;95591.53;5090464;28;20024;-71
2022/06/25 06:20:51;;;;;;;0.95;0.95;;;;;;;15.69;91.00;95593.91;5090839;28;20020;-71
2022/06/25 06:23:17;;;;;;;2.15;0.95;;;;;;;15.75;88.87;95598.50;5090756;28;20020;-70
2022/06/25 06:25:42;;;;;;;0.90;0.90;;;;;;;15.91;90.54;95591.47;5091079;28;20096;-70
2022/06/25 06:28:07;;;;;;;1.10;1.10;;;;;;;16.11;88.36;95585.66;5090568;28;20024;-71
2022/06/25 06:30:33;;;;;;;1.25;0.93;;;;;;;16.33;88.86;95584.78;5090513;28;20491;-70
2022/06/25 06:32:58;;;;;;;0.98;0.98;;;;;;;16.58;88.41;95589.03;5090258;28;20040;-69
2022/06/25 06:35:23;;;;;;;1.00;1.00;;;;;;;16.83;87.83;95586.94;5090060;28;20028;-70
2022/06/25 06:37:49;;;;;;;3.15;1.05;;;;;;;17.17;86.00;95596.22;5089911;28;20446;-71
2022/06/25 06:40:15;;;;;;;1.27;1.10;;;;;;;17.37;84.11;95594.78;5089958;28;20024;-71
2022/06/25 06:42:40;;;;;;;1.30;1.20;;;;;;;17.55;80.64;95586.38;5090422;28;20020;-72
2022/06/25 06:45:06;;;;;;;1.42;1.00;;;;;;;17.86;80.61;95583.41;5090350;28;20422;-71
2022/06/25 06:47:32;;;;;;;1.75;1.20;;;;;;;18.07;78.14;95586.31;5090273;28;20032;-70
2022/06/25 06:49:57;;;;;;;1.00;1.00;;;;;;;18.36;78.60;95595.16;5085828;28;20028;-69
2022/06/25 06:52:22;;;;;;;1.85;1.00;;;;;;;18.56;78.09;95593.44;5086440;28;20551;-68
2022/06/25 06:54:48;;;;;;;3.70;1.02;;;;;;;18.83;74.56;95585.63;5089961;28;20024;-68
2022/06/25 06:57:14;;;;;;;1.40;0.90;;;;;;;19.08;75.37;95587.81;5090303;28;20048;-68
2022/06/25 06:59:41;;;;;;;0.82;0.80;;;;;;;19.39;73.26;95581.19;5089755;28;20055;-69
2022/06/25 07:02:06;;;;;;;0.85;0.82;;;;;;;19.67;71.59;95584.75;5090230;28;20032;-69
2022/06/25 07:04:32;;;;;;;1.67;0.80;;;;;;;19.77;70.85;95587.84;5090044;28;20024;-67
2022/06/25 07:06:57;;;;;;;1.27;1.17;;;;;;;20.03;70.29;95584.44;5089827;28;20017;-69
2022/06/25 07:09:23;;;;;;;1.30;1.20;;;;;;;20.38;71.69;95594.13;5090091;28;20028;-70
2022/06/25 07:11:48;;;;;;;3.03;1.00;;;;;;;20.61;68.74;95588.31;5089434;28;20020;-69
2022/06/25 07:14:14;;;;;;;2.63;1.00;;;;;;;20.85;67.18;95591.41;5104033;28;20402;-69
2022/06/25 07:16:39;;;;;;;3.67;1.08;;;;;;;20.92;65.60;95588.72;5092004;28;20020;-69
2022/06/25 07:19:05;;;;;;;2.90;1.00;;;;;;;20.99;63.15;95594.03;5089780;28;20097;-70
2022/06/25 07:21:32;;;;;;;0.93;0.93;;;;;;;21.23;64.41;95583.69;5083174;28;20020;-69
2022/06/25 07:23:57;;;;;;;4.22;1.00;;;;;;;21.43;63.26;95587.09;5089189;28;20024;-70
2022/06/25 07:26:24;;;;;;;0.95;0.95;;;;;;;21.39;61.94;95588.56;5087683;28;20016;-70
2022/06/25 07:28:52;;;;;;;1.45;0.90;;;;;;;21.77;62.14;95586.94;5078450;28;20048;-70
2022/06/25 07:31:17;;;;;;;1.60;1.02;;;;;;;21.72;60.41;95586.78;5086115;28;20727;-70
2022/06/25 07:33:43;;;;;;;2.08;1.02;;;;;;;21.67;61.69;95579.38;5086580;28;20036;-69
2022/06/25 07:36:09;;;;;;;0.98;0.90;;;;;;;21.76;61.55;95582.63;5091944;28;20142;-69
2022/06/25 07:38:34;;;;;;;4.35;0.98;;;;;;;21.93;60.48;95572.22;5103487;28;20024;-69
2022/06/25 07:41:00;;;;;;;4.72;0.77;;;;;;;21.78;59.89;95582.44;5103188;28;20051;-68
2022/06/25 07:43:27;;;;;;;0.80;0.80;;;;;;;21.73;58.09;95575.03;5103810;28;20086;-67
2022/06/25 07:45:53;;;;;;;1.30;0.80;;;;;;;22.08;58.69;95573.75;5098514;28;20024;-69
2022/06/25 07:48:18;;;;;;;0.80;0.80;;;;;;;22.42;58.05;95582.34;5103259;28;20092;-69
2022/06/25 07:53:28;;;;;;;2.00;1.05;;;;;;;22.37;56.91;95564.25;5108152;28;20418;-67
2022/06/25 07:55:54;;;;;;;1.40;1.00;;;;;;;22.27;56.61;95559.38;5108460;28;20044;-68
2022/06/25 07:58:19;;;;;;;0.90;0.90;;;;;;;22.76;55.07;95564.13;5109922;28;20043;-68
2022/06/25 08:00:45;;;;;;;5.05;0.88;;;;;;;22.86;54.54;95560.94;5100996;28;20020;-69
2022/06/25 08:03:11;;;;;;;3.00;1.20;;;;;;;22.98;54.02;95561.00;5109128;28;20027;-68
2022/06/25 08:05:37;;;;;;;1.52;0.82;;;;;;;23.09;53.49;95548.69;5092418;28;20054;-70
2022/06/25 08:08:02;;;;;;;2.33;0.90;;;;;;;23.24;53.51;95556.34;5106717;28;20106;-68
2022/06/25 08:10:28;;;;;;;0.80;0.80;;;;;;;23.42;52.25;95545.63;5091525;28;20054;-67
2022/06/25 08:12:53;;;;;;;0.73;0.73;;;;;;;23.63;50.17;95543.50;5091553;28;20099;-70
2022/06/25 08:15:20;;;;;;;0.60;0.60;;;;;;;23.75;48.73;95540.84;5104542;28;20094;-69
2022/06/25 08:17:46;;;;;;;1.45;0.80;;;;;;;23.72;50.45;95538.63;5100985;28;20039;-73
2022/06/25 08:20:11;;;;;;;0.60;0.60;;;;;;;24.03;50.80;95540.25;5091385;28;20024;-72
2022/06/25 08:22:37;;;;;;;0.70;0.70;;;;;;;24.30;49.69;95531.75;5091512;28;20020;-71
2022/06/25 08:25:04;;;;;;;1.23;0.75;;;;;;;24.53;48.87;95532.78;5091254;28;20487;-70
2022/06/25 08:27:31;;;;;;;1.05;0.80;;;;;;;25.00;48.38;95537.34;5091193;28;20859;-70
2022/06/25 08:29:57;;;;;;;1.17;0.80;;;;;;;25.79;46.23;95539.69;5091315;28;20099;-68
2022/06/25 08:32:22;;;;;;;0.70;0.70;;;;;;;25.98;45.54;95527.63;5091257;28;20031;-69
2022/06/25 08:34:48;;;;;;;1.70;0.95;;;;;;;25.45;44.78;95524.22;5094890;28;20478;-68
2022/06/25 08:37:13;;;;;;;1.23;0.80;;;;;;;25.38;46.62;95527.03;5107752;28;20070;-69
2022/06/25 08:39:39;;;;;;;0.90;0.90;;;;;;;25.27;47.63;95525.19;5104510;28;20016;-69
2022/06/25 08:42:05;;;;;;;2.28;0.82;;;;;;;25.38;46.00;95526.22;5104697;28;20016;-68
2022/06/25 08:44:30;;;;;;;0.70;0.70;;;;;;;25.77;45.46;95514.84;5088876;28;20441;-70
2022/06/25 08:46:58;;;;;;;1.63;0.75;;;;;;;25.68;45.81;95515.22;5102447;28;20024;-69
2022/06/25 08:49:24;;;;;;;0.52;0.52;;;;;;;25.81;44.87;95514.09;5073021;28;20056;-68
2022/06/25 08:51:52;;;;;;;0.70;0.70;;;;;;;26.28;43.84;95517.56;5090862;28;20020;-72
2022/06/25 08:54:19;;;;;;;0.73;0.65;;;;;;;25.74;43.81;95500.75;5092362;28;20050;-72
2022/06/25 08:56:46;;;;;;;0.70;0.70;;;;;;;25.62;46.56;95510.81;5108792;28;20035;-72
2022/06/25 08:59:12;;;;;;;1.33;0.65;;;;;;;25.63;45.54;95504.34;5107039;28;20564;-71
2022/06/25 09:01:38;;;;;;;1.10;0.50;;;;;;;25.86;47.31;95507.97;5104652;28;20103;-71
2022/06/25 09:04:04;;;;;;;0.65;0.60;;;;;;;26.52;46.41;95496.63;5100803;28;20020;-71
2022/06/25 09:06:29;;;;;;;0.93;0.93;;;;;;;26.51;47.18;95503.09;5104992;28;20049;-70
2022/06/25 09:09:16;;;;;;;1.20;0.77;;;;;;;26.62;45.57;95504.03;5090756;28;20175;-70
2022/06/25 09:11:55;;;;;;;0.63;0.63;;;;;;;26.85;42.80;95497.63;5089685;28;20032;-71
2022/06/25 09:14:21;;;;;;;0.77;0.77;;;;;;;26.55;43.44;95498.81;5090457;28;20024;-72
2022/06/25 09:17:04;;;;;;;1.63;0.80;;;;;;;26.29;44.03;95498.44;5090366;28;20095;-71
2022/06/25 09:19:32;;;;;;;1.55;0.47;;;;;;;26.04;44.21;95490.72;5083723;28;20104;-72
2022/06/25 09:22:00;;;;;;;3.55;0.68;;;;;;;25.68;45.14;95484.75;5073673;28;20328;-71
2022/06/25 09:24:44;;;;;;;0.30;0.30;;;;;;;25.46;46.39;95488.13;5069328;28;20059;-70
2022/06/25 09:27:09;;;;;;;0.60;0.60;;;;;;;26.18;45.27;95491.25;5068411;28;20028;-69
2022/06/25 09:29:43;;;;;;;0.80;0.70;;;;;;;26.72;44.42;95479.06;5102469;28;20105;-69
2022/06/25 09:32:09;;;;;;;3.58;0.65;;;;;;;26.92;42.50;95477.72;5105824;28;20511;-69
2022/06/25 09:34:36;;;;;;;0.70;0.70;;;;;;;27.66;41.75;95475.59;5106460;28;20031;-71
2022/06/25 09:37:19;;;;;;;0.70;0.60;;;;;;;27.35;40.84;95472.53;5104434;28;20046;-68
2022/06/25 09:39:49;;;;;;;2.72;0.82;;;;;;;26.89;41.81;95465.53;5100523;28;20495;-68
2022/06/25 09:42:24;;;;;;;0.60;0.60;;;;;;;27.17;40.18;95463.69;5106459;28;20474;-69
2022/06/25 09:44:59;;;;;;;0.85;0.60;;;;;;;27.33;40.16;95459.28;5105145;28;20024;-66
2022/06/25 09:47:26;;;;;;;2.20;0.82;;;;;;;26.94;41.21;95449.38;5103603;28;20039;-68
2022/06/25 09:50:15;;;;;;;1.48;0.70;;;;;;;27.57;39.44;95462.50;5106273;28;20399;-69
2022/06/25 09:53:01;;;;;;;1.00;0.60;;;;;;;27.49;38.49;95444.03;5101705;28;20108;-69
2022/06/25 09:55:37;;;;;;;0.57;0.57;;;;;;;27.56;38.59;95441.97;5102734;28;20494;-69
2022/06/25 09:58:03;;;;;;;1.23;0.70;;;;;;;27.67;38.37;95440.16;5102310;28;20023;-67
2022/06/25 10:00:30;;;;;;;0.63;0.63;;;;;;;28.09;37.13;95443.19;5104819;28;20070;-67
2022/06/25 10:02:59;;;;;;;0.93;0.68;;;;;;;27.83;37.84;95443.81;5106046;28;20028;-67
2022/06/25 10:05:37;;;;;;;1.33;0.93;;;;;;;27.83;38.54;95434.91;5075696;28;20020;-69
2022/06/25 10:08:07;;;;;;;0.73;0.38;;;;;;;27.67;39.48;95429.34;5093357;28;20037;-69
2022/06/25 10:10:41;;;;;;;0.60;0.60;;;;;;;28.10;38.61;95431.31;5092151;28;20058;-69
2022/06/25 10:13:07;;;;;;;0.80;0.60;;;;;;;28.02;38.25;95429.88;5079661;28;20020;-70
2022/06/25 10:15:34;;;;;;;1.65;0.80;;;;;;;27.73;39.96;95422.09;5096107;28;20077;-69
2022/06/25 10:18:02;;;;;;;0.80;0.80;;;;;;;27.80;39.38;95424.59;5098536;28;20016;-70
2022/06/25 10:20:28;;;;;;;0.65;0.65;;;;;;;28.15;39.05;95418.66;5091867;28;20032;-70
2022/06/25 10:22:55;;;;;;;0.88;0.88;;;;;;;28.61;36.81;95422.69;5088986;28;20088;-69
2022/06/25 10:25:23;;;;;;;0.93;0.70;;;;;;;28.58;36.55;95415.91;5089079;28;20050;-70
2022/06/25 10:27:51;;;;;;;0.60;0.60;;;;;;;28.67;36.95;95410.00;5088207;28;20028;-68
2022/06/25 10:30:35;;;;;;;1.52;0.68;;;;;;;28.64;37.03;95414.03;5091298;28;20406;-69
2022/06/25 10:33:01;;;;;;;0.40;0.40;;;;;;;29.23;36.97;95412.09;5088580;28;20103;-71
2022/06/25 10:35:34;;;;;;;0.43;0.43;;;;;;;29.27;35.45;95405.06;5089328;28;20451;-68
2022/06/25 10:38:00;;;;;;;1.55;1.00;;;;;;;29.29;35.80;95413.72;5088501;28;20230;-69
2022/06/25 10:40:25;;;;;;;2.15;0.57;;;;;;;29.58;36.54;95407.03;5088594;28;20537;-68
2022/06/25 10:43:00;;;;;;;0.60;0.60;;;;;;;29.79;35.00;95407.03;5088719;28;20467;-69
2022/06/25 10:45:25;;;;;;;0.47;0.43;;;;;;;30.23;32.06;95400.22;5088725;28;20099;-69
2022/06/25 10:47:58;;;;;;;0.50;0.50;;;;;;;30.76;32.28;95397.09;5088654;28;20127;-69
2022/06/25 10:50:25;;;;;;;0.82;0.50;;;;;;;30.20;30.55;95398.06;5088428;28;20522;-69
2022/06/25 10:53:02;;;;;;;0.98;0.60;;;;;;;30.33;32.56;95378.47;5088365;28;20471;-69
2022/06/25 10:55:47;;;;;;;1.98;0.60;;;;;;;31.25;29.13;95378.38;5088495;28;20040;-69
2022/06/25 10:58:22;;;;;;;;;;;;;;;30.44;30.03;95371.13;5088908;28;20063;-69
2022/06/25 11:00:58;;;;;;;0.63;0.43;;;;;;;29.88;31.09;95376.38;5088309;28;19912;-68
2022/06/25 11:03:27;;;;;;;0.55;0.55;;;;;;;29.77;33.11;95376.66;5088261;28;20027;-68
2022/06/25 11:05:52;;;;;;;2.13;0.60;;;;;;;30.63;29.50;95370.53;5088411;28;20050;-68
2022/06/25 11:08:18;;;;;;;3.95;0.52;;;;;;;30.69;29.97;95367.50;5088442;28;20041;-68
2022/06/25 11:10:43;;;;;;;0.60;0.60;;;;;;;30.24;30.52;95366.56;5088252;28;20062;-68
2022/06/25 11:13:09;;;;;;;0.60;0.60;;;;;;;30.57;29.36;95365.06;5088340;28;20024;-68
2022/06/25 11:15:39;;;;;;;0.55;0.55;;;;;;;30.16;29.96;95359.78;5088444;28;20031;-68
2022/06/25 11:18:09;;;;;;;0.40;0.40;;;;;;;30.86;28.16;95360.91;5088594;28;20020;-67
2022/06/25 11:20:36;;;;;;;0.52;0.40;;;;;;;29.55;31.58;95356.06;5088326;28;20028;-68
2022/06/25 11:23:02;;;;;;;0.47;0.47;;;;;;;30.02;29.33;95341.38;5088674;28;20091;-68
2022/06/25 11:28:48;;;;;;;0.50;0.50;;;;;;;30.50;29.74;95348.28;5088969;28;20035;-68
2022/06/25 11:31:17;;;;;;;2.25;0.70;;;;;;;31.01;27.92;95346.41;5092219;28;20032;-67
2022/06/25 11:33:43;;;;;;;1.85;0.63;;;;;;;30.56;30.46;95347.16;5092500;28;20032;-68
2022/06/25 11:36:10;;;;;;;0.50;0.50;;;;;;;31.36;25.80;95346.47;5092444;28;20605;-67
2022/06/25 11:38:36;;;;;;;1.38;0.73;;;;;;;30.76;27.64;95353.63;5092647;28;20027;-67
2022/06/25 11:41:02;;;;;;;0.60;0.60;;;;;;;30.44;29.29;95346.69;5092277;28;20111;-66
2022/06/25 11:43:28;;;;;;;0.55;0.55;;;;;;;30.40;29.41;95348.34;5092386;28;20103;-69
2022/06/25 11:45:56;;;;;;;0.70;0.70;;;;;;;30.47;30.02;95354.28;5091886;28;20063;-68